Terminal Aerodrome Forecast
Issued by NWS

Home | Current Version | Previous Version | Text Only | Print | Product List | Glossary On
Versions: 1 2 3 4 5 6 7 8 9 10 11 12
000
FTUS44 KOUN 242329
TAFLAW
TAF
KLAW 242329Z 2500/2524 25013G23KT P6SM SCT070 BKN150
     FM250300 30020G28KT P6SM SCT030 BKN070
     FM251500 34013KT P6SM OVC050
     FM251800 32008KT P6SM SKC=

USA.gov is the U.S. government's official web portal to all federal, state and local government web resources and services.